Flight Track Log - Related Links

Times and Time Zones

All times are in EDT time to prevent confusion due to time zone crossing. See the N77HE flight status page for this flight to view local times or setup timezone preferences in your user account.

Time Position Orientation Groundspeed Altitude Reporting Facility
EDT Latitude Longitude Course Direction KTS MPH feet Rate Location/Type
Fri 06:23:36 PM 37.6911 -97.4067 256° West 132 152 3,100  Level Kansas City Center
Fri 06:23:42 PM 37.6953 -97.4086 340° North 133 153 3,400 1,254 Climbing Kansas City Center
Fri 06:24:43 PM 37.7061 -97.4547 287° West 167 192 4,500 1,121 Climbing Kansas City Center
Fri 06:25:13 PM 37.6964 -97.4792 243° Southwest 163 188 5,100 1,200 Climbing Kansas City Center
Fri 06:25:43 PM 37.6864 -97.5106 248° West 176 203 5,700 787 Climbing Kansas City Center
Fri 06:26:14 PM 37.6794 -97.5375 252° West 171 197 5,900 197 Climbing Kansas City Center
Fri 06:26:44 PM 37.6714 -97.5736 254° West 201 231 5,900 197 Level Kansas City Center
Fri 06:27:15 PM 37.6669 -97.6092 261° West 190 219 6,100 126 Climbing Kansas City Center
Fri 06:28:19 PM 37.6617 -97.6844 265° West 206 237 6,100 -97 Level Kansas City Center
Fri 06:29:00 PM 37.5799 -97.8259 256° West  Level FlightAware Approximate
Fri 06:29:19 PM 37.6553 -97.7608 264° West 213 245 5,900  Level Kansas City Center
Fri 06:30:23 PM 37.6372 -97.8525 256° West 219 252 6,000 48 Climbing Kansas City Center
Fri 06:31:24 PM 37.6208 -97.9272 255° West 219 252 6,000 -49 Level Kansas City Center
Fri 06:32:25 PM 37.6108 -98.0019 260° West 219 252 5,900  Descending Kansas City Center
Fri 06:33:29 PM 37.5986 -98.0775 258° West 218 251 6,000  Climbing Kansas City Center
Fri 06:34:30 PM 37.5889 -98.1528 261° West 219 252 5,900 240 Descending Kansas City Center
Fri 06:35:34 PM 37.5786 -98.2272 260° West 218 251 6,500 720 Climbing Kansas City Center
Fri 06:36:35 PM 37.5636 -98.2931 254° West 206 237 7,400 738 Climbing Kansas City Center
Fri 06:37:36 PM 37.5475 -98.3664 255° West 184 212 8,000 288 Climbing Kansas City Center
Fri 06:38:40 PM 37.5394 -98.4333 261° West 186 214 8,000 48 Level Kansas City Center
Fri 06:39:42 PM 37.5253 -98.5017 255° West 198 228 8,100 98 Climbing Kansas City Center
Fri 06:40:43 PM 37.5083 -98.5717 253° West 203 234 8,200  Climbing Kansas City Center
Fri 06:41:44 PM 37.4897 -98.6422 252° West 209 241 8,100  Descending Kansas City Center
Fri 06:42:47 PM 37.4767 -98.7147 257° West 209 241 8,200 48 Climbing Kansas City Center
Fri 06:43:48 PM 37.4625 -98.8011 258° West 209 241 8,200 -96 Level Kansas City Center
Fri 06:44:52 PM 37.4578 -98.8736 265° West 209 241 8,000 -48 Descending Kansas City Center
Fri 06:45:53 PM 37.4447 -98.9464 257° West 210 242 8,100 48 Climbing Kansas City Center
Fri 06:46:56 PM 37.4294 -99.0183 255° West 210 242 8,100 48 Level Kansas City Center
Fri 06:47:57 PM 37.4117 -99.0900 253° West 212 244 8,200 48 Climbing Kansas City Center
Fri 06:49:01 PM 37.3989 -99.1622 257° West 212 244 8,200 -48 Level Kansas City Center
Fri 06:50:01 PM 37.3839 -99.2494 258° West 212 244 8,100  Descending Kansas City Center
Fri 06:51:05 PM 37.3681 -99.3214 255° West 212 244 8,200  Climbing Kansas City Center
Fri 06:52:05 PM 37.3539 -99.3933 256° West 212 244 8,100 -49 Descending Kansas City Center
Fri 06:53:07 PM 37.3372 -99.4678 254° West 212 244 8,100  Level Kansas City Center
Fri 06:54:10 PM 37.3264 -99.5375 259° West 212 244 8,100 -49 Level Kansas City Center
Fri 06:55:10 PM 37.3108 -99.6189 257° West 212 244 8,000 -48 Descending Kansas City Center
Fri 06:56:14 PM 37.2939 -99.7014 256° West 213 245 8,000  Level Kansas City Center
Fri 06:57:15 PM 37.2808 -99.7694 256° West 214 246 8,000  Level Kansas City Center
Fri 06:58:19 PM 37.2658 -99.8400 255° West 214 246 8,000  Level Kansas City Center
Fri 06:59:19 PM 37.2519 -99.9219 258° West 214 246 8,000  Level Kansas City Center
Fri 07:00:23 PM 37.2419 -99.9928 260° West 214 246 8,000  Level Kansas City Center
Fri 07:01:23 PM 37.2261 -100.0756 257° West 214 246 8,000  Level Kansas City Center
Fri 07:02:27 PM 37.2119 -100.1461 256° West 215 247 8,000  Level Kansas City Center
Fri 07:03:29 PM 37.1906 -100.2289 252° West 218 251 8,000  Level Kansas City Center
Fri 07:04:30 PM 37.1517 -100.2875 230° Southwest 227 261 8,000 -49 Level Kansas City Center
Fri 07:05:32 PM 37.1064 -100.3564 231° Southwest 228 262 7,900 -288 Descending Kansas City Center
Fri 07:06:35 PM 37.0672 -100.4192 232° Southwest 230 265 7,400 -484 Descending Kansas City Center
Fri 07:07:36 PM 37.0175 -100.4931 230° Southwest 243 280 6,900 -480 Descending Kansas City Center
Fri 07:08:40 PM 36.9764 -100.5556 231° Southwest 243 280 6,400 -435 Descending Kansas City Center
Fri 07:09:40 PM 36.9300 -100.6286 232° Southwest 243 280 6,000 -194 Descending Kansas City Center
Fri 07:10:44 PM 36.8958 -100.6875 234° Southwest 232 267 6,000  Level Kansas City Center
Fri 07:11:44 PM 36.8603 -100.7431 231° Southwest 221 254 6,000  Level Kansas City Center
Fri 07:12:48 PM 36.8269 -100.8172 241° Southwest 224 258 6,000 -48 Level Kansas City Center
Fri 07:13:49 PM 36.8178 -100.8892 261° West 224 258 5,900 -492 Descending Kansas City Center
Fri 07:14:50 PM 36.8353 -100.9631 287° West 224 258 5,000 -432 Descending Kansas City Center
Fri 07:15:54 PM 36.8778 -100.9617 North 181 208 5,000  Level Kansas City Center

Login

Don't have an account? Register now (free) for customized features, flight alerts, and more!